sensor_id;sensor_type;location;lat;lon;timestamp;P1;durP1;ratioP1;P2;durP2;ratioP2
7110;SDS011;3597;42.650;23.386;2023-04-19T00:01:12;0.60;;;0.60;;
7110;SDS011;3597;42.650;23.386;2023-04-19T00:03:38;0.83;;;0.83;;
7110;SDS011;3597;42.650;23.386;2023-04-19T00:06:03;0.90;;;0.90;;
7110;SDS011;3597;42.650;23.386;2023-04-19T00:08:28;0.90;;;0.90;;
7110;SDS011;3597;42.650;23.386;2023-04-19T00:10:54;0.83;;;0.83;;
7110;SDS011;3597;42.650;23.386;2023-04-19T00:13:19;0.90;;;0.90;;
7110;SDS011;3597;42.650;23.386;2023-04-19T00:15:45;0.80;;;0.80;;
7110;SDS011;3597;42.650;23.386;2023-04-19T00:18:11;0.73;;;0.73;;
7110;SDS011;3597;42.650;23.386;2023-04-19T00:20:37;0.90;;;0.90;;
7110;SDS011;3597;42.650;23.386;2023-04-19T00:23:03;1.10;;;1.10;;
7110;SDS011;3597;42.650;23.386;2023-04-19T00:25:28;0.80;;;0.80;;
7110;SDS011;3597;42.650;23.386;2023-04-19T00:27:55;0.80;;;0.80;;
7110;SDS011;3597;42.650;23.386;2023-04-19T00:30:21;0.70;;;0.70;;
7110;SDS011;3597;42.650;23.386;2023-04-19T00:32:46;0.67;;;0.67;;
7110;SDS011;3597;42.650;23.386;2023-04-19T00:35:12;0.80;;;0.80;;
7110;SDS011;3597;42.650;23.386;2023-04-19T00:37:37;1.00;;;1.00;;
7110;SDS011;3597;42.650;23.386;2023-04-19T00:40:03;0.70;;;0.70;;
7110;SDS011;3597;42.650;23.386;2023-04-19T00:42:29;0.80;;;0.80;;
7110;SDS011;3597;42.650;23.386;2023-04-19T00:44:55;0.80;;;0.80;;
7110;SDS011;3597;42.650;23.386;2023-04-19T00:47:20;0.90;;;0.90;;
7110;SDS011;3597;42.650;23.386;2023-04-19T00:49:45;1.20;;;1.00;;
7110;SDS011;3597;42.650;23.386;2023-04-19T00:52:11;0.70;;;0.70;;
7110;SDS011;3597;42.650;23.386;2023-04-19T00:54:37;0.80;;;0.80;;
7110;SDS011;3597;42.650;23.386;2023-04-19T00:57:03;0.90;;;0.90;;
7110;SDS011;3597;42.650;23.386;2023-04-19T00:59:28;0.80;;;0.80;;
7110;SDS011;3597;42.650;23.386;2023-04-19T01:01:54;0.90;;;0.90;;
7110;SDS011;3597;42.650;23.386;2023-04-19T01:04:20;0.90;;;0.90;;
7110;SDS011;3597;42.650;23.386;2023-04-19T01:06:46;0.70;;;0.70;;
7110;SDS011;3597;42.650;23.386;2023-04-19T01:09:12;0.80;;;0.80;;
7110;SDS011;3597;42.650;23.386;2023-04-19T01:11:37;0.77;;;0.77;;
7110;SDS011;3597;42.650;23.386;2023-04-19T01:14:03;0.70;;;0.70;;
7110;SDS011;3597;42.650;23.386;2023-04-19T01:16:28;0.70;;;0.70;;
7110;SDS011;3597;42.650;23.386;2023-04-19T01:18:53;0.83;;;0.83;;
7110;SDS011;3597;42.650;23.386;2023-04-19T01:21:19;0.73;;;0.73;;
7110;SDS011;3597;42.650;23.386;2023-04-19T01:23:46;0.83;;;0.83;;
7110;SDS011;3597;42.650;23.386;2023-04-19T01:26:11;1.33;;;1.23;;
7110;SDS011;3597;42.650;23.386;2023-04-19T01:28:37;0.77;;;0.77;;
7110;SDS011;3597;42.650;23.386;2023-04-19T01:31:02;0.90;;;0.90;;
7110;SDS011;3597;42.650;23.386;2023-04-19T01:33:27;0.90;;;0.90;;
7110;SDS011;3597;42.650;23.386;2023-04-19T01:35:53;0.77;;;0.77;;
7110;SDS011;3597;42.650;23.386;2023-04-19T01:38:18;0.77;;;0.77;;
7110;SDS011;3597;42.650;23.386;2023-04-19T01:40:44;0.80;;;0.80;;
7110;SDS011;3597;42.650;23.386;2023-04-19T01:43:12;0.87;;;0.87;;
7110;SDS011;3597;42.650;23.386;2023-04-19T01:45:38;1.00;;;1.00;;
7110;SDS011;3597;42.650;23.386;2023-04-19T01:48:04;0.77;;;0.77;;
7110;SDS011;3597;42.650;23.386;2023-04-19T01:50:30;0.90;;;0.90;;
7110;SDS011;3597;42.650;23.386;2023-04-19T01:52:56;0.83;;;0.83;;
7110;SDS011;3597;42.650;23.386;2023-04-19T01:55:21;0.90;;;0.90;;
7110;SDS011;3597;42.650;23.386;2023-04-19T01:57:47;0.70;;;0.70;;
7110;SDS011;3597;42.650;23.386;2023-04-19T02:00:12;0.90;;;0.90;;
7110;SDS011;3597;42.650;23.386;2023-04-19T02:02:39;1.10;;;1.10;;
7110;SDS011;3597;42.650;23.386;2023-04-19T02:05:05;0.80;;;0.80;;
7110;SDS011;3597;42.650;23.386;2023-04-19T02:07:30;0.90;;;0.90;;
7110;SDS011;3597;42.650;23.386;2023-04-19T02:09:56;2.20;;;1.10;;
7110;SDS011;3597;42.650;23.386;2023-04-19T02:12:23;0.80;;;0.80;;
7110;SDS011;3597;42.650;23.386;2023-04-19T02:14:52;1.37;;;0.93;;
7110;SDS011;3597;42.650;23.386;2023-04-19T02:17:17;0.90;;;0.90;;
7110;SDS011;3597;42.650;23.386;2023-04-19T02:19:43;1.00;;;1.00;;
7110;SDS011;3597;42.650;23.386;2023-04-19T02:22:08;0.93;;;0.93;;
7110;SDS011;3597;42.650;23.386;2023-04-19T02:24:33;0.77;;;0.77;;
7110;SDS011;3597;42.650;23.386;2023-04-19T02:26:59;0.90;;;0.90;;
7110;SDS011;3597;42.650;23.386;2023-04-19T02:29:25;0.90;;;0.90;;
7110;SDS011;3597;42.650;23.386;2023-04-19T02:31:51;0.97;;;0.97;;
7110;SDS011;3597;42.650;23.386;2023-04-19T02:34:17;1.00;;;1.00;;
7110;SDS011;3597;42.650;23.386;2023-04-19T02:36:42;0.90;;;0.90;;
7110;SDS011;3597;42.650;23.386;2023-04-19T02:39:07;0.90;;;0.90;;
7110;SDS011;3597;42.650;23.386;2023-04-19T02:41:33;1.20;;;1.20;;
7110;SDS011;3597;42.650;23.386;2023-04-19T02:43:58;1.03;;;1.03;;
7110;SDS011;3597;42.650;23.386;2023-04-19T02:46:23;0.80;;;0.80;;
7110;SDS011;3597;42.650;23.386;2023-04-19T02:48:49;1.00;;;1.00;;
7110;SDS011;3597;42.650;23.386;2023-04-19T02:51:14;1.00;;;1.00;;
7110;SDS011;3597;42.650;23.386;2023-04-19T02:53:41;0.97;;;0.97;;
7110;SDS011;3597;42.650;23.386;2023-04-19T02:56:06;0.90;;;0.90;;
7110;SDS011;3597;42.650;23.386;2023-04-19T02:58:32;0.97;;;0.90;;
7110;SDS011;3597;42.650;23.386;2023-04-19T03:00:57;1.00;;;1.00;;
7110;SDS011;3597;42.650;23.386;2023-04-19T03:03:22;0.97;;;0.97;;
7110;SDS011;3597;42.650;23.386;2023-04-19T03:05:48;1.00;;;1.00;;
7110;SDS011;3597;42.650;23.386;2023-04-19T03:08:13;1.20;;;1.20;;
7110;SDS011;3597;42.650;23.386;2023-04-19T03:10:38;0.97;;;0.97;;
7110;SDS011;3597;42.650;23.386;2023-04-19T03:13:04;1.50;;;1.23;;
7110;SDS011;3597;42.650;23.386;2023-04-19T03:15:29;1.27;;;1.27;;
7110;SDS011;3597;42.650;23.386;2023-04-19T03:17:55;1.00;;;1.00;;
7110;SDS011;3597;42.650;23.386;2023-04-19T03:20:20;0.97;;;0.97;;
7110;SDS011;3597;42.650;23.386;2023-04-19T03:22:45;1.20;;;1.20;;
7110;SDS011;3597;42.650;23.386;2023-04-19T03:25:11;1.13;;;1.13;;
7110;SDS011;3597;42.650;23.386;2023-04-19T03:27:37;1.37;;;1.37;;
7110;SDS011;3597;42.650;23.386;2023-04-19T03:30:03;1.93;;;1.93;;
7110;SDS011;3597;42.650;23.386;2023-04-19T03:32:28;1.10;;;1.10;;
7110;SDS011;3597;42.650;23.386;2023-04-19T03:34:54;1.30;;;1.30;;
7110;SDS011;3597;42.650;23.386;2023-04-19T03:37:20;1.40;;;1.40;;
7110;SDS011;3597;42.650;23.386;2023-04-19T03:39:45;1.30;;;1.30;;
7110;SDS011;3597;42.650;23.386;2023-04-19T03:42:11;1.43;;;1.43;;
7110;SDS011;3597;42.650;23.386;2023-04-19T03:44:36;1.20;;;1.20;;
7110;SDS011;3597;42.650;23.386;2023-04-19T03:47:01;1.43;;;1.43;;
7110;SDS011;3597;42.650;23.386;2023-04-19T03:49:27;1.50;;;1.50;;
7110;SDS011;3597;42.650;23.386;2023-04-19T03:51:52;1.50;;;1.50;;
7110;SDS011;3597;42.650;23.386;2023-04-19T03:54:18;1.27;;;1.27;;
7110;SDS011;3597;42.650;23.386;2023-04-19T03:56:43;1.63;;;1.63;;
7110;SDS011;3597;42.650;23.386;2023-04-19T03:59:08;1.20;;;1.20;;
7110;SDS011;3597;42.650;23.386;2023-04-19T04:01:34;1.47;;;1.47;;
7110;SDS011;3597;42.650;23.386;2023-04-19T04:04:05;1.40;;;1.40;;
7110;SDS011;3597;42.650;23.386;2023-04-19T04:06:31;1.47;;;1.47;;
7110;SDS011;3597;42.650;23.386;2023-04-19T04:08:56;1.50;;;1.50;;
7110;SDS011;3597;42.650;23.386;2023-04-19T04:11:22;1.70;;;1.70;;
7110;SDS011;3597;42.650;23.386;2023-04-19T04:13:47;2.47;;;2.47;;
7110;SDS011;3597;42.650;23.386;2023-04-19T04:16:14;1.30;;;1.30;;
7110;SDS011;3597;42.650;23.386;2023-04-19T04:18:39;2.00;;;2.00;;
7110;SDS011;3597;42.650;23.386;2023-04-19T04:21:05;3.20;;;1.90;;
7110;SDS011;3597;42.650;23.386;2023-04-19T04:23:30;1.50;;;1.50;;
7110;SDS011;3597;42.650;23.386;2023-04-19T04:25:58;3.23;;;2.50;;
7110;SDS011;3597;42.650;23.386;2023-04-19T04:28:26;1.70;;;1.70;;
7110;SDS011;3597;42.650;23.386;2023-04-19T04:30:53;1.83;;;1.77;;
7110;SDS011;3597;42.650;23.386;2023-04-19T04:33:22;1.90;;;1.90;;
7110;SDS011;3597;42.650;23.386;2023-04-19T04:35:50;2.57;;;1.93;;
7110;SDS011;3597;42.650;23.386;2023-04-19T04:38:16;2.23;;;2.23;;
7110;SDS011;3597;42.650;23.386;2023-04-19T04:40:42;1.70;;;1.70;;
7110;SDS011;3597;42.650;23.386;2023-04-19T04:43:07;1.63;;;1.63;;
7110;SDS011;3597;42.650;23.386;2023-04-19T04:45:35;1.60;;;1.60;;
7110;SDS011;3597;42.650;23.386;2023-04-19T04:48:01;1.70;;;1.70;;
7110;SDS011;3597;42.650;23.386;2023-04-19T04:50:27;2.00;;;2.00;;
7110;SDS011;3597;42.650;23.386;2023-04-19T04:52:52;1.60;;;1.60;;
7110;SDS011;3597;42.650;23.386;2023-04-19T04:55:18;1.80;;;1.80;;
7110;SDS011;3597;42.650;23.386;2023-04-19T04:57:43;1.60;;;1.60;;
7110;SDS011;3597;42.650;23.386;2023-04-19T05:00:09;1.87;;;1.87;;
7110;SDS011;3597;42.650;23.386;2023-04-19T05:02:35;1.90;;;1.90;;
7110;SDS011;3597;42.650;23.386;2023-04-19T05:05:01;1.77;;;1.77;;
7110;SDS011;3597;42.650;23.386;2023-04-19T05:07:27;2.23;;;2.23;;
7110;SDS011;3597;42.650;23.386;2023-04-19T05:09:52;1.37;;;1.37;;
7110;SDS011;3597;42.650;23.386;2023-04-19T05:12:17;1.43;;;1.43;;
7110;SDS011;3597;42.650;23.386;2023-04-19T05:14:43;1.47;;;1.47;;
7110;SDS011;3597;42.650;23.386;2023-04-19T05:17:08;1.33;;;1.33;;
7110;SDS011;3597;42.650;23.386;2023-04-19T05:19:33;1.40;;;1.40;;
7110;SDS011;3597;42.650;23.386;2023-04-19T05:21:59;1.50;;;1.50;;
7110;SDS011;3597;42.650;23.386;2023-04-19T05:24:24;2.13;;;2.13;;
7110;SDS011;3597;42.650;23.386;2023-04-19T05:26:50;1.43;;;1.43;;
7110;SDS011;3597;42.650;23.386;2023-04-19T05:29:15;1.50;;;1.50;;
7110;SDS011;3597;42.650;23.386;2023-04-19T05:31:41;1.37;;;1.37;;
7110;SDS011;3597;42.650;23.386;2023-04-19T05:34:06;1.63;;;1.47;;
7110;SDS011;3597;42.650;23.386;2023-04-19T05:36:31;1.50;;;1.50;;
7110;SDS011;3597;42.650;23.386;2023-04-19T05:38:57;1.60;;;1.60;;
7110;SDS011;3597;42.650;23.386;2023-04-19T05:41:22;1.50;;;1.50;;
7110;SDS011;3597;42.650;23.386;2023-04-19T05:43:48;1.40;;;1.40;;
7110;SDS011;3597;42.650;23.386;2023-04-19T05:46:13;1.67;;;1.67;;
7110;SDS011;3597;42.650;23.386;2023-04-19T05:48:38;1.43;;;1.43;;
7110;SDS011;3597;42.650;23.386;2023-04-19T05:51:04;1.30;;;1.30;;
7110;SDS011;3597;42.650;23.386;2023-04-19T05:53:29;1.37;;;1.37;;
7110;SDS011;3597;42.650;23.386;2023-04-19T05:55:55;1.57;;;1.57;;
7110;SDS011;3597;42.650;23.386;2023-04-19T05:58:20;1.70;;;1.70;;
7110;SDS011;3597;42.650;23.386;2023-04-19T06:00:47;1.83;;;1.83;;
7110;SDS011;3597;42.650;23.386;2023-04-19T06:03:13;1.77;;;1.77;;
7110;SDS011;3597;42.650;23.386;2023-04-19T06:05:38;1.27;;;1.27;;
7110;SDS011;3597;42.650;23.386;2023-04-19T06:08:04;1.50;;;1.50;;
7110;SDS011;3597;42.650;23.386;2023-04-19T06:10:31;1.53;;;1.53;;
7110;SDS011;3597;42.650;23.386;2023-04-19T06:12:56;1.20;;;1.20;;
7110;SDS011;3597;42.650;23.386;2023-04-19T06:15:21;1.70;;;1.70;;
7110;SDS011;3597;42.650;23.386;2023-04-19T06:17:47;1.80;;;1.70;;
7110;SDS011;3597;42.650;23.386;2023-04-19T06:20:12;1.30;;;1.30;;
7110;SDS011;3597;42.650;23.386;2023-04-19T06:22:43;1.70;;;1.70;;
7110;SDS011;3597;42.650;23.386;2023-04-19T06:25:09;1.60;;;1.60;;
7110;SDS011;3597;42.650;23.386;2023-04-19T06:27:34;1.40;;;1.40;;
7110;SDS011;3597;42.650;23.386;2023-04-19T06:30:00;1.40;;;1.40;;
7110;SDS011;3597;42.650;23.386;2023-04-19T06:32:25;1.40;;;1.40;;
7110;SDS011;3597;42.650;23.386;2023-04-19T06:34:51;1.40;;;1.40;;
7110;SDS011;3597;42.650;23.386;2023-04-19T06:37:16;1.43;;;1.43;;
7110;SDS011;3597;42.650;23.386;2023-04-19T06:39:41;1.57;;;1.57;;
7110;SDS011;3597;42.650;23.386;2023-04-19T06:42:07;1.37;;;1.37;;
7110;SDS011;3597;42.650;23.386;2023-04-19T06:44:32;1.87;;;1.87;;
7110;SDS011;3597;42.650;23.386;2023-04-19T06:46:58;1.40;;;1.40;;
7110;SDS011;3597;42.650;23.386;2023-04-19T06:49:23;1.40;;;1.40;;
7110;SDS011;3597;42.650;23.386;2023-04-19T06:51:48;1.20;;;1.20;;
7110;SDS011;3597;42.650;23.386;2023-04-19T06:54:14;5.53;;;1.27;;
7110;SDS011;3597;42.650;23.386;2023-04-19T06:56:45;1.20;;;1.20;;
7110;SDS011;3597;42.650;23.386;2023-04-19T06:59:13;1.57;;;1.57;;
7110;SDS011;3597;42.650;23.386;2023-04-19T07:01:40;1.20;;;1.20;;
7110;SDS011;3597;42.650;23.386;2023-04-19T07:04:06;1.30;;;1.30;;
7110;SDS011;3597;42.650;23.386;2023-04-19T07:06:33;1.67;;;1.57;;
7110;SDS011;3597;42.650;23.386;2023-04-19T07:08:59;1.60;;;1.60;;
7110;SDS011;3597;42.650;23.386;2023-04-19T07:11:24;1.30;;;1.30;;
7110;SDS011;3597;42.650;23.386;2023-04-19T07:13:49;2.00;;;1.90;;
7110;SDS011;3597;42.650;23.386;2023-04-19T07:16:15;1.87;;;1.87;;
7110;SDS011;3597;42.650;23.386;2023-04-19T07:18:41;1.30;;;1.30;;
7110;SDS011;3597;42.650;23.386;2023-04-19T07:21:07;1.57;;;1.57;;
7110;SDS011;3597;42.650;23.386;2023-04-19T07:23:33;1.30;;;1.30;;
7110;SDS011;3597;42.650;23.386;2023-04-19T07:25:58;1.20;;;1.20;;
7110;SDS011;3597;42.650;23.386;2023-04-19T07:28:23;1.13;;;1.13;;
7110;SDS011;3597;42.650;23.386;2023-04-19T07:30:49;1.53;;;1.53;;
7110;SDS011;3597;42.650;23.386;2023-04-19T07:33:14;1.33;;;1.33;;
7110;SDS011;3597;42.650;23.386;2023-04-19T07:35:40;1.33;;;1.33;;
7110;SDS011;3597;42.650;23.386;2023-04-19T07:38:05;1.60;;;1.60;;
7110;SDS011;3597;42.650;23.386;2023-04-19T07:40:31;1.50;;;1.50;;
7110;SDS011;3597;42.650;23.386;2023-04-19T07:42:56;1.63;;;1.63;;
7110;SDS011;3597;42.650;23.386;2023-04-19T07:45:22;1.40;;;1.40;;
7110;SDS011;3597;42.650;23.386;2023-04-19T07:47:47;1.43;;;1.43;;
7110;SDS011;3597;42.650;23.386;2023-04-19T07:50:13;1.30;;;1.30;;
7110;SDS011;3597;42.650;23.386;2023-04-19T07:52:38;1.20;;;1.20;;
7110;SDS011;3597;42.650;23.386;2023-04-19T07:55:04;1.40;;;1.40;;
7110;SDS011;3597;42.650;23.386;2023-04-19T07:57:29;0.90;;;0.90;;
7110;SDS011;3597;42.650;23.386;2023-04-19T07:59:55;1.50;;;1.40;;
7110;SDS011;3597;42.650;23.386;2023-04-19T08:02:24;1.50;;;1.50;;
7110;SDS011;3597;42.650;23.386;2023-04-19T08:04:50;1.30;;;1.30;;
7110;SDS011;3597;42.650;23.386;2023-04-19T08:07:15;1.83;;;1.53;;
7110;SDS011;3597;42.650;23.386;2023-04-19T08:09:41;1.53;;;1.53;;
7110;SDS011;3597;42.650;23.386;2023-04-19T08:12:06;1.60;;;1.60;;
7110;SDS011;3597;42.650;23.386;2023-04-19T08:14:31;1.80;;;1.80;;
7110;SDS011;3597;42.650;23.386;2023-04-19T08:16:57;1.50;;;1.50;;
7110;SDS011;3597;42.650;23.386;2023-04-19T08:19:22;1.40;;;1.40;;
7110;SDS011;3597;42.650;23.386;2023-04-19T08:21:48;1.40;;;1.40;;
7110;SDS011;3597;42.650;23.386;2023-04-19T08:24:13;1.50;;;1.50;;
7110;SDS011;3597;42.650;23.386;2023-04-19T08:26:38;1.50;;;1.50;;
7110;SDS011;3597;42.650;23.386;2023-04-19T08:29:04;1.60;;;1.60;;
7110;SDS011;3597;42.650;23.386;2023-04-19T08:31:29;1.20;;;1.20;;
7110;SDS011;3597;42.650;23.386;2023-04-19T08:33:55;1.60;;;1.60;;
7110;SDS011;3597;42.650;23.386;2023-04-19T08:36:21;1.57;;;1.57;;
7110;SDS011;3597;42.650;23.386;2023-04-19T08:38:46;1.20;;;1.20;;
7110;SDS011;3597;42.650;23.386;2023-04-19T08:41:12;1.50;;;1.50;;
7110;SDS011;3597;42.650;23.386;2023-04-19T08:43:38;1.60;;;1.60;;
7110;SDS011;3597;42.650;23.386;2023-04-19T08:46:07;3.90;;;1.70;;
7110;SDS011;3597;42.650;23.386;2023-04-19T08:48:33;1.50;;;1.50;;
7110;SDS011;3597;42.650;23.386;2023-04-19T08:51:00;1.57;;;1.57;;
7110;SDS011;3597;42.650;23.386;2023-04-19T08:53:29;1.53;;;1.53;;
7110;SDS011;3597;42.650;23.386;2023-04-19T08:55:54;1.40;;;1.40;;
7110;SDS011;3597;42.650;23.386;2023-04-19T08:58:23;1.50;;;1.50;;
7110;SDS011;3597;42.650;23.386;2023-04-19T09:00:49;1.33;;;1.33;;
7110;SDS011;3597;42.650;23.386;2023-04-19T09:03:15;1.50;;;1.50;;
7110;SDS011;3597;42.650;23.386;2023-04-19T09:05:40;1.50;;;1.40;;
7110;SDS011;3597;42.650;23.386;2023-04-19T09:08:39;1.20;;;1.20;;
7110;SDS011;3597;42.650;23.386;2023-04-19T09:10:58;1.63;;;1.63;;
7110;SDS011;3597;42.650;23.386;2023-04-19T09:13:25;1.53;;;1.53;;
7110;SDS011;3597;42.650;23.386;2023-04-19T09:15:51;1.70;;;1.70;;
7110;SDS011;3597;42.650;23.386;2023-04-19T09:18:21;1.53;;;1.43;;
7110;SDS011;3597;42.650;23.386;2023-04-19T09:20:49;1.40;;;1.40;;
7110;SDS011;3597;42.650;23.386;2023-04-19T09:23:15;1.80;;;1.80;;
7110;SDS011;3597;42.650;23.386;2023-04-19T09:26:01;1.33;;;1.33;;
7110;SDS011;3597;42.650;23.386;2023-04-19T09:28:30;1.53;;;1.53;;
7110;SDS011;3597;42.650;23.386;2023-04-19T09:30:56;1.40;;;1.40;;
7110;SDS011;3597;42.650;23.386;2023-04-19T09:33:31;1.20;;;1.20;;
7110;SDS011;3597;42.650;23.386;2023-04-19T09:35:57;1.30;;;1.20;;
7110;SDS011;3597;42.650;23.386;2023-04-19T09:38:23;1.10;;;1.10;;
7110;SDS011;3597;42.650;23.386;2023-04-19T09:40:48;1.20;;;1.20;;
7110;SDS011;3597;42.650;23.386;2023-04-19T09:43:22;1.20;;;1.20;;
7110;SDS011;3597;42.650;23.386;2023-04-19T09:45:48;1.27;;;1.27;;
7110;SDS011;3597;42.650;23.386;2023-04-19T09:48:13;1.20;;;1.20;;
7110;SDS011;3597;42.650;23.386;2023-04-19T09:50:52;1.43;;;1.43;;
7110;SDS011;3597;42.650;23.386;2023-04-19T09:53:19;1.20;;;1.20;;
7110;SDS011;3597;42.650;23.386;2023-04-19T09:55:46;1.30;;;1.30;;
7110;SDS011;3597;42.650;23.386;2023-04-19T09:58:12;1.30;;;1.30;;
7110;SDS011;3597;42.650;23.386;2023-04-19T10:00:38;1.10;;;1.10;;
7110;SDS011;3597;42.650;23.386;2023-04-19T10:03:03;1.10;;;1.10;;
7110;SDS011;3597;42.650;23.386;2023-04-19T10:05:30;1.17;;;1.17;;
7110;SDS011;3597;42.650;23.386;2023-04-19T10:07:56;1.40;;;1.40;;
7110;SDS011;3597;42.650;23.386;2023-04-19T10:10:23;1.30;;;1.30;;
7110;SDS011;3597;42.650;23.386;2023-04-19T10:12:51;1.20;;;1.20;;
7110;SDS011;3597;42.650;23.386;2023-04-19T10:15:20;1.10;;;1.10;;
7110;SDS011;3597;42.650;23.386;2023-04-19T10:17:46;1.37;;;1.27;;
7110;SDS011;3597;42.650;23.386;2023-04-19T10:20:16;1.17;;;1.17;;
7110;SDS011;3597;42.650;23.386;2023-04-19T10:22:45;1.20;;;1.20;;
7110;SDS011;3597;42.650;23.386;2023-04-19T10:25:11;1.20;;;1.20;;
7110;SDS011;3597;42.650;23.386;2023-04-19T10:27:38;1.20;;;1.20;;
7110;SDS011;3597;42.650;23.386;2023-04-19T10:30:04;1.60;;;1.60;;
7110;SDS011;3597;42.650;23.386;2023-04-19T10:32:38;1.20;;;1.20;;
7110;SDS011;3597;42.650;23.386;2023-04-19T10:35:07;1.40;;;1.40;;
7110;SDS011;3597;42.650;23.386;2023-04-19T10:37:34;1.23;;;1.23;;
7110;SDS011;3597;42.650;23.386;2023-04-19T10:40:04;1.30;;;1.30;;
7110;SDS011;3597;42.650;23.386;2023-04-19T10:43:13;1.43;;;1.43;;
7110;SDS011;3597;42.650;23.386;2023-04-19T10:45:35;1.53;;;1.53;;
7110;SDS011;3597;42.650;23.386;2023-04-19T10:48:01;1.20;;;1.20;;
7110;SDS011;3597;42.650;23.386;2023-04-19T10:50:28;1.20;;;1.20;;
7110;SDS011;3597;42.650;23.386;2023-04-19T10:52:54;1.37;;;1.37;;
7110;SDS011;3597;42.650;23.386;2023-04-19T10:55:19;1.60;;;1.50;;
7110;SDS011;3597;42.650;23.386;2023-04-19T10:58:04;1.40;;;1.40;;
7110;SDS011;3597;42.650;23.386;2023-04-19T11:00:30;1.27;;;1.27;;
7110;SDS011;3597;42.650;23.386;2023-04-19T11:03:00;1.17;;;1.17;;
7110;SDS011;3597;42.650;23.386;2023-04-19T11:06:16;1.30;;;1.30;;
7110;SDS011;3597;42.650;23.386;2023-04-19T11:08:44;1.20;;;1.20;;
7110;SDS011;3597;42.650;23.386;2023-04-19T11:11:09;1.17;;;1.17;;
7110;SDS011;3597;42.650;23.386;2023-04-19T11:13:35;1.13;;;1.13;;
7110;SDS011;3597;42.650;23.386;2023-04-19T11:16:06;1.20;;;1.20;;
7110;SDS011;3597;42.650;23.386;2023-04-19T11:18:32;1.30;;;1.30;;
7110;SDS011;3597;42.650;23.386;2023-04-19T11:20:57;3.50;;;1.50;;
7110;SDS011;3597;42.650;23.386;2023-04-19T11:23:24;1.37;;;1.37;;
7110;SDS011;3597;42.650;23.386;2023-04-19T11:25:50;1.40;;;1.40;;
7110;SDS011;3597;42.650;23.386;2023-04-19T11:28:17;1.37;;;1.37;;
7110;SDS011;3597;42.650;23.386;2023-04-19T11:30:43;1.30;;;1.30;;
7110;SDS011;3597;42.650;23.386;2023-04-19T11:33:09;1.60;;;1.60;;
7110;SDS011;3597;42.650;23.386;2023-04-19T11:35:36;1.57;;;1.47;;
7110;SDS011;3597;42.650;23.386;2023-04-19T11:38:01;1.50;;;1.50;;
7110;SDS011;3597;42.650;23.386;2023-04-19T11:40:29;1.77;;;1.77;;
7110;SDS011;3597;42.650;23.386;2023-04-19T11:42:55;1.30;;;1.30;;
7110;SDS011;3597;42.650;23.386;2023-04-19T11:47:50;1.50;;;1.50;;
7110;SDS011;3597;42.650;23.386;2023-04-19T11:55:44;1.13;;;1.13;;
7110;SDS011;3597;42.650;23.386;2023-04-19T11:58:48;1.33;;;1.33;;
7110;SDS011;3597;42.650;23.386;2023-04-19T12:01:12;1.00;;;1.00;;
7110;SDS011;3597;42.650;23.386;2023-04-19T12:03:40;1.20;;;1.20;;
7110;SDS011;3597;42.650;23.386;2023-04-19T12:06:12;1.40;;;1.40;;
7110;SDS011;3597;42.650;23.386;2023-04-19T12:08:48;1.20;;;1.20;;
7110;SDS011;3597;42.650;23.386;2023-04-19T12:11:15;1.10;;;1.10;;
7110;SDS011;3597;42.650;23.386;2023-04-19T12:13:41;1.63;;;1.63;;
7110;SDS011;3597;42.650;23.386;2023-04-19T12:16:08;1.10;;;1.10;;
7110;SDS011;3597;42.650;23.386;2023-04-19T12:18:41;1.00;;;1.00;;
7110;SDS011;3597;42.650;23.386;2023-04-19T12:21:08;1.10;;;1.10;;
7110;SDS011;3597;42.650;23.386;2023-04-19T12:23:34;1.03;;;1.03;;
7110;SDS011;3597;42.650;23.386;2023-04-19T12:26:01;1.40;;;1.40;;
7110;SDS011;3597;42.650;23.386;2023-04-19T12:28:29;1.20;;;1.20;;
7110;SDS011;3597;42.650;23.386;2023-04-19T12:30:54;1.10;;;1.10;;
7110;SDS011;3597;42.650;23.386;2023-04-19T12:33:20;1.30;;;1.30;;
7110;SDS011;3597;42.650;23.386;2023-04-19T12:35:45;3.03;;;1.33;;
7110;SDS011;3597;42.650;23.386;2023-04-19T12:38:11;1.30;;;1.30;;
7110;SDS011;3597;42.650;23.386;2023-04-19T12:40:36;1.20;;;1.20;;
7110;SDS011;3597;42.650;23.386;2023-04-19T12:43:01;1.20;;;1.20;;
7110;SDS011;3597;42.650;23.386;2023-04-19T12:45:27;1.10;;;1.10;;
7110;SDS011;3597;42.650;23.386;2023-04-19T12:47:52;1.30;;;1.30;;
7110;SDS011;3597;42.650;23.386;2023-04-19T12:50:17;1.40;;;1.40;;
7110;SDS011;3597;42.650;23.386;2023-04-19T12:52:43;1.20;;;1.20;;
7110;SDS011;3597;42.650;23.386;2023-04-19T12:55:09;2.27;;;1.33;;
7110;SDS011;3597;42.650;23.386;2023-04-19T12:57:35;1.30;;;1.30;;
7110;SDS011;3597;42.650;23.386;2023-04-19T13:00:00;1.10;;;1.10;;
7110;SDS011;3597;42.650;23.386;2023-04-19T13:02:25;1.30;;;1.30;;
7110;SDS011;3597;42.650;23.386;2023-04-19T13:04:51;1.20;;;1.20;;
7110;SDS011;3597;42.650;23.386;2023-04-19T13:07:16;1.30;;;1.30;;
7110;SDS011;3597;42.650;23.386;2023-04-19T13:09:42;1.10;;;1.10;;
7110;SDS011;3597;42.650;23.386;2023-04-19T13:12:07;1.20;;;1.20;;
7110;SDS011;3597;42.650;23.386;2023-04-19T13:14:33;1.03;;;1.03;;
7110;SDS011;3597;42.650;23.386;2023-04-19T13:16:58;1.20;;;1.20;;
7110;SDS011;3597;42.650;23.386;2023-04-19T13:19:24;1.27;;;1.27;;
7110;SDS011;3597;42.650;23.386;2023-04-19T13:21:49;1.20;;;1.20;;
7110;SDS011;3597;42.650;23.386;2023-04-19T13:24:15;1.20;;;1.20;;
7110;SDS011;3597;42.650;23.386;2023-04-19T13:26:40;1.47;;;1.47;;
7110;SDS011;3597;42.650;23.386;2023-04-19T13:29:05;1.10;;;1.10;;
7110;SDS011;3597;42.650;23.386;2023-04-19T13:31:33;1.10;;;1.10;;
7110;SDS011;3597;42.650;23.386;2023-04-19T13:33:59;1.37;;;1.37;;
7110;SDS011;3597;42.650;23.386;2023-04-19T13:36:25;1.20;;;1.20;;
7110;SDS011;3597;42.650;23.386;2023-04-19T13:38:52;1.40;;;1.30;;
7110;SDS011;3597;42.650;23.386;2023-04-19T13:41:17;1.20;;;1.10;;
7110;SDS011;3597;42.650;23.386;2023-04-19T13:43:43;1.10;;;1.10;;
7110;SDS011;3597;42.650;23.386;2023-04-19T13:46:09;1.13;;;1.13;;
7110;SDS011;3597;42.650;23.386;2023-04-19T13:48:34;1.00;;;1.00;;
7110;SDS011;3597;42.650;23.386;2023-04-19T13:51:00;1.30;;;1.30;;
7110;SDS011;3597;42.650;23.386;2023-04-19T13:53:26;1.47;;;1.30;;
7110;SDS011;3597;42.650;23.386;2023-04-19T13:55:52;1.23;;;1.23;;
7110;SDS011;3597;42.650;23.386;2023-04-19T13:58:18;1.20;;;1.20;;
7110;SDS011;3597;42.650;23.386;2023-04-19T14:00:44;1.10;;;1.10;;
7110;SDS011;3597;42.650;23.386;2023-04-19T14:03:09;1.10;;;1.10;;
7110;SDS011;3597;42.650;23.386;2023-04-19T14:05:35;1.30;;;1.30;;
7110;SDS011;3597;42.650;23.386;2023-04-19T14:08:00;1.13;;;1.13;;
7110;SDS011;3597;42.650;23.386;2023-04-19T14:10:26;0.97;;;0.97;;
7110;SDS011;3597;42.650;23.386;2023-04-19T14:12:51;1.10;;;1.10;;
7110;SDS011;3597;42.650;23.386;2023-04-19T14:15:18;1.20;;;1.20;;
7110;SDS011;3597;42.650;23.386;2023-04-19T14:17:44;1.30;;;1.30;;
7110;SDS011;3597;42.650;23.386;2023-04-19T14:20:10;1.20;;;1.20;;
7110;SDS011;3597;42.650;23.386;2023-04-19T14:22:35;1.20;;;1.20;;
7110;SDS011;3597;42.650;23.386;2023-04-19T14:25:01;1.30;;;1.30;;
7110;SDS011;3597;42.650;23.386;2023-04-19T14:27:27;1.20;;;1.20;;
7110;SDS011;3597;42.650;23.386;2023-04-19T14:29:53;1.47;;;1.47;;
7110;SDS011;3597;42.650;23.386;2023-04-19T14:32:18;1.40;;;1.40;;
7110;SDS011;3597;42.650;23.386;2023-04-19T14:34:43;1.17;;;1.17;;
7110;SDS011;3597;42.650;23.386;2023-04-19T14:37:09;1.30;;;1.30;;
7110;SDS011;3597;42.650;23.386;2023-04-19T14:39:35;1.20;;;1.20;;
7110;SDS011;3597;42.650;23.386;2023-04-19T14:42:00;1.10;;;1.10;;
7110;SDS011;3597;42.650;23.386;2023-04-19T14:44:26;1.73;;;1.63;;
7110;SDS011;3597;42.650;23.386;2023-04-19T14:46:51;1.50;;;1.50;;
7110;SDS011;3597;42.650;23.386;2023-04-19T14:49:16;1.20;;;1.20;;
7110;SDS011;3597;42.650;23.386;2023-04-19T14:51:42;1.00;;;1.00;;
7110;SDS011;3597;42.650;23.386;2023-04-19T14:54:07;1.07;;;1.07;;
7110;SDS011;3597;42.650;23.386;2023-04-19T14:56:33;1.20;;;1.10;;
7110;SDS011;3597;42.650;23.386;2023-04-19T14:58:58;1.20;;;1.20;;
7110;SDS011;3597;42.650;23.386;2023-04-19T15:01:24;1.13;;;1.13;;
7110;SDS011;3597;42.650;23.386;2023-04-19T15:03:49;1.60;;;1.33;;